createdAt,value
2017-07-03T00:00:23.466Z,15.1
2017-07-03T00:01:23.054Z,15.1
2017-07-03T00:02:22.273Z,15.1
2017-07-03T00:03:21.482Z,15.1
2017-07-03T00:04:20.689Z,15.1
2017-07-03T00:06:19.360Z,15
2017-07-03T00:07:18.569Z,15
2017-07-03T00:08:17.655Z,15
2017-07-03T00:09:17.422Z,15
2017-07-03T00:10:16.011Z,15
2017-07-03T00:11:15.222Z,15
2017-07-03T00:12:14.930Z,15
2017-07-03T00:13:14.140Z,14.9
2017-07-03T00:13:44.685Z,14.9
2017-07-03T00:14:15.213Z,15
2017-07-03T00:15:12.401Z,15
2017-07-03T00:16:11.493Z,15
2017-07-03T00:17:11.090Z,15
2017-07-03T00:18:09.984Z,14.9
2017-07-03T00:19:10.103Z,14.9
2017-07-03T00:20:08.820Z,14.9
2017-07-03T00:21:08.038Z,14.9
2017-07-03T00:22:07.254Z,14.9
2017-07-03T00:23:06.469Z,14.9
2017-07-03T00:24:05.695Z,14.9
2017-07-03T00:25:04.910Z,14.9
2017-07-03T00:26:04.656Z,14.9
2017-07-03T00:27:03.253Z,14.8
2017-07-03T00:28:03.424Z,14.9
2017-07-03T00:29:02.133Z,14.8
2017-07-03T00:30:01.346Z,14.8
2017-07-03T00:31:00.443Z,14.8
2017-07-03T00:31:59.657Z,14.8
2017-07-03T00:32:58.870Z,14.8
2017-07-03T00:33:58.087Z,14.8
2017-07-03T00:34:57.339Z,14.8
2017-07-03T00:35:57.065Z,14.8
2017-07-03T00:36:56.163Z,14.8
2017-07-03T00:37:55.854Z,14.8
2017-07-03T00:38:54.573Z,14.8
2017-07-03T00:39:53.683Z,14.8
2017-07-03T00:40:52.895Z,14.8
2017-07-03T00:41:52.111Z,14.8
2017-07-03T00:42:22.649Z,14.8
2017-07-03T00:42:53.178Z,14.7
2017-07-03T00:43:23.588Z,14.7
2017-07-03T00:43:54.047Z,14.7
2017-07-03T00:44:24.583Z,14.7
2017-07-03T00:45:49.470Z,14.7
2017-07-03T00:46:48.673Z,14.7
2017-07-03T00:47:47.837Z,14.7
2017-07-03T00:48:47.040Z,14.7
2017-07-03T00:49:46.263Z,14.7
2017-07-03T00:50:46.436Z,14.7
2017-07-03T00:51:44.635Z,14.7
2017-07-03T00:52:44.339Z,14.6
2017-07-03T00:53:43.551Z,14.6
2017-07-03T00:54:42.768Z,14.6
2017-07-03T00:55:41.995Z,14.6
2017-07-03T00:56:41.102Z,14.6
2017-07-03T00:58:39.700Z,14.6
2017-07-03T00:59:38.738Z,14.6
2017-07-03T01:00:37.952Z,14.5
2017-07-03T01:01:37.166Z,14.6
2017-07-03T01:02:36.778Z,14.5
2017-07-03T01:03:35.981Z,14.5
2017-07-03T01:04:35.820Z,14.5
2017-07-03T01:05:34.541Z,14.5
2017-07-03T01:06:33.820Z,14.4
2017-07-03T01:07:33.046Z,14.4
2017-07-03T01:08:32.257Z,14.4
2017-07-03T01:09:31.358Z,14.4
2017-07-03T01:10:30.445Z,14.4
2017-07-03T01:11:29.656Z,14.3
2017-07-03T01:12:29.259Z,14.3
2017-07-03T01:13:28.542Z,14.3
2017-07-03T01:14:27.744Z,14.3
2017-07-03T01:15:26.973Z,14.3
2017-07-03T01:16:26.182Z,14.3
2017-07-03T01:17:25.441Z,14.2
2017-07-03T01:18:24.643Z,14.2
2017-07-03T01:19:23.864Z,14.2
2017-07-03T01:20:23.661Z,14.2
2017-07-03T01:21:22.370Z,14.2
2017-07-03T01:22:21.578Z,14.1
2017-07-03T01:23:20.774Z,14.1
2017-07-03T01:24:19.871Z,14.1
2017-07-03T01:25:19.479Z,14.1
2017-07-03T01:26:18.575Z,14.1
2017-07-03T01:27:17.659Z,14.1
2017-07-03T01:28:16.874Z,14.1
2017-07-03T01:29:16.077Z,14
2017-07-03T01:30:15.677Z,14.1
2017-07-03T01:31:14.893Z,14.1
2017-07-03T01:32:14.111Z,14
2017-07-03T01:33:13.323Z,14
2017-07-03T01:34:12.548Z,14
2017-07-03T01:35:11.759Z,14
2017-07-03T01:36:11.557Z,14
2017-07-03T01:38:09.645Z,13.9
2017-07-03T01:39:08.865Z,13.9
2017-07-03T01:40:08.047Z,13.9
2017-07-03T01:41:07.258Z,13.9
2017-07-03T01:42:06.615Z,13.9
2017-07-03T01:43:05.758Z,13.9
2017-07-03T01:44:04.968Z,13.9
2017-07-03T01:45:04.259Z,13.9
2017-07-03T01:46:03.560Z,13.9
2017-07-03T01:47:02.831Z,13.9
2017-07-03T01:48:02.089Z,13.9
2017-07-03T01:49:01.321Z,13.9
2017-07-03T01:50:00.421Z,13.8
2017-07-03T01:50:59.795Z,13.9
2017-07-03T01:51:59.020Z,13.8
2017-07-03T01:52:58.246Z,13.8
2017-07-03T01:53:57.481Z,13.8
2017-07-03T01:54:56.687Z,13.8
2017-07-03T01:56:54.789Z,13.8
2017-07-03T01:57:54.578Z,13.8
2017-07-03T01:58:53.283Z,13.8
2017-07-03T01:59:52.756Z,13.8
2017-07-03T02:00:51.970Z,13.8
2017-07-03T02:01:51.364Z,13.8
2017-07-03T02:02:50.467Z,13.7
2017-07-03T02:03:49.752Z,13.7
2017-07-03T02:04:48.973Z,13.7
2017-07-03T02:05:48.066Z,13.7
2017-07-03T02:06:47.370Z,13.7
2017-07-03T02:07:46.577Z,13.7
2017-07-03T02:08:17.055Z,13.7
2017-07-03T02:09:45.005Z,13.7
2017-07-03T02:10:44.229Z,13.7
2017-07-03T02:11:43.437Z,13.7
2017-07-03T02:12:42.643Z,13.7
2017-07-03T02:13:41.856Z,13.7
2017-07-03T02:14:41.079Z,13.7
2017-07-03T02:15:40.294Z,13.7
2017-07-03T02:16:39.509Z,13.7
2017-07-03T02:17:39.111Z,13.7
2017-07-03T02:18:38.325Z,13.7
2017-07-03T02:19:37.095Z,13.7
2017-07-03T02:20:36.306Z,13.7
2017-07-03T02:21:36.001Z,13.7
2017-07-03T02:22:35.100Z,13.7
2017-07-03T02:23:34.319Z,13.7
2017-07-03T02:24:33.529Z,13.7
2017-07-03T02:25:32.883Z,13.8
2017-07-03T02:26:32.089Z,13.8
2017-07-03T02:27:31.297Z,13.8
2017-07-03T02:28:30.516Z,13.8
2017-07-03T02:30:28.641Z,13.8
2017-07-03T02:31:28.235Z,13.8
2017-07-03T02:32:27.454Z,13.8
2017-07-03T02:33:26.680Z,13.8
2017-07-03T02:34:25.759Z,13.9
2017-07-03T02:35:24.870Z,13.9
2017-07-03T02:36:24.081Z,13.9
2017-07-03T02:37:23.554Z,13.9
2017-07-03T02:38:22.763Z,13.9
2017-07-03T02:39:22.130Z,13.9
2017-07-03T02:40:21.223Z,13.9
2017-07-03T02:41:20.433Z,13.8
2017-07-03T02:42:19.526Z,13.8
2017-07-03T02:43:19.024Z,13.9
2017-07-03T02:44:18.118Z,13.9
2017-07-03T02:45:17.326Z,13.9
2017-07-03T02:46:16.538Z,13.9
2017-07-03T02:47:15.519Z,13.9
2017-07-03T02:48:15.231Z,13.9
2017-07-03T02:49:14.452Z,13.9
2017-07-03T02:50:13.231Z,13.9
2017-07-03T02:52:11.825Z,13.9
2017-07-03T02:53:11.033Z,13.9
2017-07-03T02:54:10.244Z,13.9
2017-07-03T02:55:09.466Z,13.9
2017-07-03T02:56:08.680Z,13.9
2017-07-03T02:57:07.898Z,13.9
2017-07-03T02:58:07.105Z,13.9
2017-07-03T02:59:06.314Z,13.9
2017-07-03T03:00:05.536Z,13.9
2017-07-03T03:01:04.749Z,13.9
2017-07-03T03:02:04.463Z,13.9
2017-07-03T03:03:03.670Z,14
2017-07-03T03:04:02.879Z,14
2017-07-03T03:05:02.091Z,14
2017-07-03T03:06:01.077Z,14
2017-07-03T03:07:00.572Z,14
2017-07-03T03:07:59.793Z,13.9
2017-07-03T03:08:58.998Z,13.9
2017-07-03T03:09:58.215Z,13.9
2017-07-03T03:10:57.432Z,13.9
2017-07-03T03:11:56.650Z,13.9
2017-07-03T03:12:55.866Z,13.9
2017-07-03T03:13:55.667Z,13.9
2017-07-03T03:14:54.390Z,13.9
2017-07-03T03:15:53.680Z,13.9
2017-07-03T03:16:52.769Z,13.9
2017-07-03T03:17:51.995Z,13.9
2017-07-03T03:18:22.410Z,13.9
2017-07-03T03:18:52.819Z,13.9
2017-07-03T03:19:50.569Z,13.9
2017-07-03T03:20:49.790Z,13.9
2017-07-03T03:21:49.005Z,13.9
2017-07-03T03:22:48.211Z,13.9
2017-07-03T03:23:47.421Z,13.9
2017-07-03T03:24:46.643Z,13.9
2017-07-03T03:25:45.851Z,13.9
2017-07-03T03:26:45.066Z,13.9
2017-07-03T03:27:15.470Z,13.9
2017-07-03T03:27:45.875Z,13.8
2017-07-03T03:28:43.481Z,13.8
2017-07-03T03:29:42.706Z,13.8
2017-07-03T03:30:41.977Z,13.8
2017-07-03T03:31:40.943Z,13.8
2017-07-03T03:32:40.174Z,13.8
2017-07-03T03:33:39.394Z,13.8
2017-07-03T03:34:39.449Z,13.8
2017-07-03T03:35:38.028Z,13.7
2017-07-03T03:36:37.241Z,13.7
2017-07-03T03:37:36.452Z,13.7
2017-07-03T03:38:35.675Z,13.7
2017-07-03T03:39:06.212Z,13.7
2017-07-03T03:39:36.803Z,13.7
2017-07-03T03:40:07.336Z,13.7
2017-07-03T03:40:37.863Z,13.7
2017-07-03T03:41:33.549Z,13.7
2017-07-03T03:42:32.764Z,13.7
2017-07-03T03:43:31.976Z,13.7
2017-07-03T03:44:31.072Z,13.6
2017-07-03T03:45:30.055Z,13.6
2017-07-03T03:46:29.768Z,13.6
2017-07-03T03:47:28.860Z,13.6
2017-07-03T03:48:28.101Z,13.6
2017-07-03T03:49:27.195Z,13.6
2017-07-03T03:50:26.292Z,13.6
2017-07-03T03:51:25.495Z,13.6
2017-07-03T03:52:24.699Z,13.6
2017-07-03T03:53:23.906Z,13.6
2017-07-03T03:54:23.394Z,13.6
2017-07-03T03:55:22.610Z,13.6
2017-07-03T03:56:21.697Z,13.6
2017-07-03T03:57:20.910Z,13.6
2017-07-03T03:58:20.119Z,13.5
2017-07-03T03:58:50.954Z,13.5
2017-07-03T04:00:18.816Z,13.6
2017-07-03T04:01:18.030Z,13.6
2017-07-03T04:02:17.306Z,13.6
2017-07-03T04:03:16.520Z,13.7
2017-07-03T04:04:15.751Z,13.7
2017-07-03T04:05:15.058Z,13.7
2017-07-03T04:06:13.851Z,13.7
2017-07-03T04:07:13.087Z,13.7
2017-07-03T04:08:12.299Z,13.7
2017-07-03T04:09:11.525Z,13.7
2017-07-03T04:10:10.747Z,13.7
2017-07-03T04:10:41.356Z,13.7
2017-07-03T04:11:11.878Z,13.7
2017-07-03T04:12:09.589Z,13.7
2017-07-03T04:13:08.689Z,13.7
2017-07-03T04:14:07.907Z,13.7
2017-07-03T04:15:07.109Z,13.8
2017-07-03T04:16:06.958Z,13.7
2017-07-03T04:17:05.682Z,13.8
2017-07-03T04:18:04.886Z,13.8
2017-07-03T04:19:04.165Z,13.8
2017-07-03T04:20:03.263Z,13.8
2017-07-03T04:21:02.441Z,13.8
2017-07-03T04:22:01.644Z,13.8
2017-07-03T04:23:00.854Z,13.8
2017-07-03T04:24:00.144Z,13.8
2017-07-03T04:24:59.347Z,13.9
2017-07-03T04:25:58.570Z,13.9
2017-07-03T04:26:57.681Z,13.9
2017-07-03T04:27:56.788Z,13.9
2017-07-03T04:28:56.451Z,13.9
2017-07-03T04:29:56.233Z,13.9
2017-07-03T04:30:54.938Z,13.9
2017-07-03T04:31:54.152Z,13.9
2017-07-03T04:33:52.254Z,14
2017-07-03T04:35:50.742Z,14.1
2017-07-03T04:36:50.060Z,14.1
2017-07-03T04:37:49.279Z,14.1
2017-07-03T04:38:48.500Z,14.1
2017-07-03T04:39:47.714Z,14.1
2017-07-03T04:40:46.937Z,14.1
2017-07-03T04:41:46.154Z,14.1
2017-07-03T04:42:45.255Z,14.1
2017-07-03T04:43:44.893Z,14.1
2017-07-03T04:44:44.116Z,14.1
2017-07-03T04:45:43.327Z,14.1
2017-07-03T04:46:42.539Z,14.1
2017-07-03T04:47:41.755Z,14.1
2017-07-03T04:48:41.008Z,14.1
2017-07-03T04:49:40.232Z,14.1
2017-07-03T04:50:39.494Z,14.1
2017-07-03T04:51:38.711Z,14.1
2017-07-03T04:52:37.920Z,14
2017-07-03T04:54:36.412Z,14
2017-07-03T04:55:35.614Z,14
2017-07-03T04:56:34.710Z,14
2017-07-03T04:57:33.810Z,14
2017-07-03T04:58:32.778Z,14
2017-07-03T04:59:32.392Z,14.1
2017-07-03T05:00:31.603Z,14.1
2017-07-03T05:01:30.709Z,14.1
2017-07-03T05:02:29.925Z,14.1
2017-07-03T05:03:29.153Z,14.1
2017-07-03T05:04:28.381Z,14.2
2017-07-03T05:04:58.785Z,14.2
2017-07-03T05:05:29.072Z,14.2
2017-07-03T05:05:59.587Z,14.2
2017-07-03T05:07:25.974Z,14.2
2017-07-03T05:08:25.757Z,14.2
2017-07-03T05:09:24.482Z,14.2
2017-07-03T05:10:23.708Z,14.2
2017-07-03T05:11:23.361Z,14.2
2017-07-03T05:12:22.453Z,14.2
2017-07-03T05:13:21.374Z,14.3
2017-07-03T05:14:20.980Z,14.3
2017-07-03T05:15:20.191Z,14.3
2017-07-03T05:16:19.404Z,14.3
2017-07-03T05:17:18.621Z,14.3
2017-07-03T05:18:18.400Z,14.3
2017-07-03T05:20:16.080Z,14.4
2017-07-03T05:21:15.295Z,14.3
2017-07-03T05:22:14.509Z,14.4
2017-07-03T05:23:13.724Z,14.4
2017-07-03T05:24:13.005Z,14.4
2017-07-03T05:25:12.227Z,14.4
2017-07-03T05:26:11.321Z,14.4
2017-07-03T05:28:09.924Z,14.4
2017-07-03T05:29:09.147Z,14.4
2017-07-03T05:30:08.457Z,14.4
2017-07-03T05:31:07.677Z,14.5
2017-07-03T05:32:06.901Z,14.4
2017-07-03T05:33:06.130Z,14.5
2017-07-03T05:34:05.347Z,14.5
2017-07-03T05:35:04.437Z,14.5
2017-07-03T05:36:03.655Z,14.4
2017-07-03T05:37:03.337Z,14.5
2017-07-03T05:38:02.571Z,14.5
2017-07-03T05:40:00.442Z,14.5
2017-07-03T05:41:00.037Z,14.5
2017-07-03T05:41:59.257Z,14.4
2017-07-03T05:42:58.546Z,14.4
2017-07-03T05:43:57.783Z,14.4
2017-07-03T05:44:28.327Z,14.4
2017-07-03T05:44:58.740Z,14.4
2017-07-03T05:45:29.267Z,14.4
2017-07-03T05:45:59.675Z,14.4
2017-07-03T05:46:30.196Z,14.4
2017-07-03T05:47:54.532Z,14.3
2017-07-03T05:49:53.020Z,14.4
2017-07-03T05:50:52.223Z,14.4
2017-07-03T05:51:51.818Z,14.4
2017-07-03T05:52:51.043Z,14.4
2017-07-03T05:53:50.332Z,14.4
2017-07-03T05:54:49.545Z,14.4
2017-07-03T05:55:48.716Z,14.4
2017-07-03T05:56:19.311Z,14.4
2017-07-03T05:56:49.592Z,14.4
2017-07-03T05:57:20.111Z,14.4
2017-07-03T05:57:50.643Z,14.4
2017-07-03T05:58:21.171Z,14.4
2017-07-03T05:59:45.561Z,14.4
2017-07-03T06:00:44.590Z,14.4
2017-07-03T06:01:43.810Z,14.4
2017-07-03T06:02:42.920Z,14.5
2017-07-03T06:04:41.912Z,14.5
2017-07-03T06:05:41.123Z,14.6
2017-07-03T06:06:40.332Z,14.6
2017-07-03T06:07:39.540Z,14.6
2017-07-03T06:08:38.747Z,14.6
2017-07-03T06:09:38.427Z,14.6
2017-07-03T06:10:37.037Z,14.6
2017-07-03T06:11:36.179Z,14.6
2017-07-03T06:12:35.380Z,14.6
2017-07-03T06:13:34.589Z,14.6
2017-07-03T06:14:33.804Z,14.6
2017-07-03T06:15:33.012Z,14.6
2017-07-03T06:16:03.596Z,14.6
2017-07-03T06:16:34.121Z,14.7
2017-07-03T06:17:31.699Z,14.7
2017-07-03T06:18:30.916Z,14.7
2017-07-03T06:19:30.701Z,14.8
2017-07-03T06:20:29.468Z,14.8
2017-07-03T06:21:28.574Z,14.9
2017-07-03T06:22:27.785Z,15
2017-07-03T06:23:26.930Z,15
2017-07-03T06:24:26.159Z,15.1
2017-07-03T06:25:25.383Z,15.1
2017-07-03T06:26:24.993Z,15.1
2017-07-03T06:27:24.217Z,15.1
2017-07-03T06:28:23.444Z,15.1
2017-07-03T06:30:22.048Z,15.2
2017-07-03T06:31:21.145Z,15.2
2017-07-03T06:32:20.363Z,15.2
2017-07-03T06:33:19.585Z,15.1
2017-07-03T06:34:18.791Z,15.2
2017-07-03T06:35:18.062Z,15.1
2017-07-03T06:36:17.274Z,15.2
2017-07-03T06:36:47.889Z,15.2
2017-07-03T06:37:18.419Z,15.1
2017-07-03T06:37:48.828Z,15.1
2017-07-03T06:39:14.729Z,15.2
2017-07-03T06:40:14.451Z,15.2
2017-07-03T06:41:13.665Z,15.2
2017-07-03T06:42:12.434Z,15.2
2017-07-03T06:43:12.035Z,15.1
2017-07-03T06:44:11.197Z,15.1
2017-07-03T06:45:10.426Z,15.2
2017-07-03T06:46:09.628Z,15.2
2017-07-03T06:47:08.841Z,15.3
2017-07-03T06:48:08.060Z,15.2
2017-07-03T06:49:07.276Z,15.4
2017-07-03T06:50:06.477Z,15.4
2017-07-03T06:51:06.078Z,15.5
2017-07-03T06:52:05.361Z,15.5
2017-07-03T06:53:04.585Z,15.4
2017-07-03T06:54:03.855Z,15.5
2017-07-03T06:55:03.079Z,15.4
2017-07-03T06:56:02.286Z,15.5
2017-07-03T06:57:01.573Z,15.5
2017-07-03T06:58:00.778Z,15.5
2017-07-03T06:58:59.988Z,15.4
2017-07-03T06:59:59.211Z,15.5
2017-07-03T07:00:58.306Z,15.5
2017-07-03T07:01:57.524Z,15.6
2017-07-03T07:02:56.608Z,15.6
2017-07-03T07:03:55.831Z,15.6
2017-07-03T07:04:55.553Z,15.6
2017-07-03T07:05:54.358Z,15.6
2017-07-03T07:06:53.628Z,15.6
2017-07-03T07:07:52.846Z,15.7
2017-07-03T07:08:52.561Z,15.7
2017-07-03T07:09:51.784Z,15.7
2017-07-03T07:10:50.997Z,15.7
2017-07-03T07:11:50.161Z,15.7
2017-07-03T07:12:49.375Z,15.8
2017-07-03T07:13:48.586Z,15.8
2017-07-03T07:14:47.800Z,15.8
2017-07-03T07:15:47.026Z,15.8
2017-07-03T07:16:46.241Z,15.8
2017-07-03T07:17:45.323Z,15.8
2017-07-03T07:18:44.927Z,15.8
2017-07-03T07:19:44.148Z,15.9
2017-07-03T07:20:43.365Z,15.9
2017-07-03T07:21:42.658Z,15.9
2017-07-03T07:22:41.769Z,15.9
2017-07-03T07:23:40.990Z,15.9
2017-07-03T07:24:40.203Z,15.9
2017-07-03T07:25:39.369Z,15.9
2017-07-03T07:26:39.097Z,15.9
2017-07-03T07:27:38.247Z,15.9
2017-07-03T07:28:37.455Z,15.9
2017-07-03T07:29:36.661Z,15.9
2017-07-03T07:30:36.443Z,16
2017-07-03T07:31:35.142Z,16
2017-07-03T07:32:34.235Z,16.1
2017-07-03T07:33:33.437Z,16.2
2017-07-03T07:34:33.033Z,16.3
2017-07-03T07:35:32.248Z,16.3
2017-07-03T07:36:31.457Z,16.4
2017-07-03T07:37:30.723Z,16.5
2017-07-03T07:38:29.928Z,16.5
2017-07-03T07:39:29.143Z,16.5
2017-07-03T07:40:28.242Z,16.4
2017-07-03T07:41:27.723Z,16.5
2017-07-03T07:42:26.810Z,16.5
2017-07-03T07:43:26.414Z,16.5
2017-07-03T07:44:25.514Z,16.6
2017-07-03T07:45:25.291Z,16.6
2017-07-03T07:46:23.998Z,16.5
2017-07-03T07:47:23.281Z,16.5
2017-07-03T07:48:22.383Z,16.6
2017-07-03T07:49:22.127Z,16.6
2017-07-03T07:50:21.411Z,16.7
2017-07-03T07:51:20.626Z,16.7
2017-07-03T07:52:19.711Z,16.7
2017-07-03T07:53:18.923Z,16.7
2017-07-03T07:54:18.137Z,16.6
2017-07-03T07:55:17.183Z,16.6
2017-07-03T07:56:16.949Z,16.6
2017-07-03T07:57:16.105Z,16.7
2017-07-03T07:58:15.204Z,16.7
2017-07-03T07:59:14.415Z,16.8
2017-07-03T08:00:13.625Z,16.7
2017-07-03T08:01:12.895Z,16.8
2017-07-03T08:02:12.608Z,16.7
2017-07-03T08:03:11.810Z,16.7
2017-07-03T08:03:42.346Z,16.7
2017-07-03T08:05:10.252Z,16.7
2017-07-03T08:06:09.527Z,16.8
2017-07-03T08:07:08.736Z,16.8
2017-07-03T08:08:07.951Z,16.8
2017-07-03T08:09:07.169Z,16.8
2017-07-03T08:10:06.392Z,16.8
2017-07-03T08:11:06.116Z,16.9
2017-07-03T08:12:05.232Z,16.8
2017-07-03T08:13:04.441Z,16.9
2017-07-03T08:14:03.541Z,16.9
2017-07-03T08:14:34.082Z,16.9
2017-07-03T08:15:04.604Z,17
2017-07-03T08:15:35.144Z,17
2017-07-03T08:16:05.661Z,16.9
2017-07-03T08:17:01.365Z,17
2017-07-03T08:18:01.542Z,17
2017-07-03T08:19:59.419Z,16.9
2017-07-03T08:20:58.633Z,16.8
2017-07-03T08:21:58.157Z,16.7
2017-07-03T08:22:57.362Z,16.7
2017-07-03T08:23:56.508Z,16.7
2017-07-03T08:24:55.717Z,16.6
2017-07-03T08:25:54.940Z,16.6
2017-07-03T08:26:54.160Z,16.6
2017-07-03T08:27:53.456Z,16.6
2017-07-03T08:28:53.161Z,16.6
2017-07-03T08:29:52.442Z,16.7
2017-07-03T08:30:51.878Z,16.8
2017-07-03T08:31:50.584Z,16.9
2017-07-03T08:32:50.299Z,17
2017-07-03T08:33:49.519Z,17
2017-07-03T08:34:48.728Z,17.1
2017-07-03T08:35:47.936Z,17.1
2017-07-03T08:36:46.911Z,17.1
2017-07-03T08:37:47.017Z,17.1
2017-07-03T08:38:45.791Z,17.2
2017-07-03T08:39:45.064Z,17.4
2017-07-03T08:40:44.280Z,17.5
2017-07-03T08:41:43.505Z,17.5
2017-07-03T08:42:43.659Z,17.5
2017-07-03T08:43:42.369Z,17.5
2017-07-03T08:44:41.580Z,17.5
2017-07-03T08:45:40.814Z,17.4
2017-07-03T08:47:39.415Z,17.4
2017-07-03T08:48:38.633Z,17.4
2017-07-03T08:49:37.852Z,17.3
2017-07-03T08:50:37.330Z,17.3
2017-07-03T08:51:36.541Z,17.3
2017-07-03T08:52:35.746Z,17.3
2017-07-03T08:53:35.036Z,17.3
2017-07-03T08:54:34.270Z,17.4
2017-07-03T08:55:33.479Z,17.4
2017-07-03T08:56:33.202Z,17.3
2017-07-03T08:57:32.285Z,17.3
2017-07-03T08:58:31.390Z,17.2
2017-07-03T08:59:30.986Z,17.2
2017-07-03T09:00:30.084Z,17.1
2017-07-03T09:01:30.258Z,17.1
2017-07-03T09:02:28.973Z,17.2
2017-07-03T09:03:28.198Z,17.2
2017-07-03T09:04:27.419Z,17.3
2017-07-03T09:05:26.508Z,17.3
2017-07-03T09:06:26.282Z,17.4
2017-07-03T09:07:25.369Z,17.4
2017-07-03T09:08:24.475Z,17.4
2017-07-03T09:09:23.493Z,17.5
2017-07-03T09:10:23.205Z,17.6
2017-07-03T09:11:22.419Z,17.6
2017-07-03T09:12:21.512Z,17.6
2017-07-03T09:12:52.117Z,17.6
2017-07-03T09:14:20.524Z,17.8
2017-07-03T09:15:19.795Z,17.8
2017-07-03T09:16:19.013Z,18
2017-07-03T09:17:18.231Z,18.2
2017-07-03T09:18:17.442Z,18.3
2017-07-03T09:19:16.672Z,18.4
2017-07-03T09:20:15.957Z,18.4
2017-07-03T09:21:15.169Z,18.4
2017-07-03T09:22:14.883Z,18.4
2017-07-03T09:23:14.671Z,18.4
2017-07-03T09:23:45.268Z,18.4
2017-07-03T09:25:12.549Z,18.4
2017-07-03T09:26:11.640Z,18.4
2017-07-03T09:27:11.242Z,18.4
2017-07-03T09:28:10.525Z,18.3
2017-07-03T09:29:09.751Z,18.3
2017-07-03T09:30:08.967Z,18.3
2017-07-03T09:31:08.684Z,18.3
2017-07-03T09:32:07.883Z,18.3
2017-07-03T09:33:07.094Z,18.3
2017-07-03T09:34:06.179Z,18.3
2017-07-03T09:35:05.667Z,18.4
2017-07-03T09:36:05.265Z,18.4
2017-07-03T09:37:04.371Z,18.4
2017-07-03T09:38:03.581Z,18.6
2017-07-03T09:39:03.187Z,18.5
2017-07-03T09:40:02.419Z,18.5
2017-07-03T09:41:01.291Z,18.5
2017-07-03T09:42:01.089Z,18.4
2017-07-03T09:43:00.187Z,18.5
2017-07-03T09:43:59.394Z,18.5
2017-07-03T09:44:59.003Z,18.6
2017-07-03T09:45:58.222Z,18.7
2017-07-03T09:46:57.209Z,18.7
2017-07-03T09:47:56.954Z,18.7
2017-07-03T09:48:56.184Z,18.6
2017-07-03T09:49:55.407Z,18.5
2017-07-03T09:50:54.709Z,18.4
2017-07-03T09:51:53.921Z,18.6
2017-07-03T09:52:53.633Z,18.8
2017-07-03T09:53:53.409Z,18.9
2017-07-03T09:54:52.120Z,19
2017-07-03T09:55:51.338Z,18.9
2017-07-03T09:56:50.434Z,18.9
2017-07-03T09:57:50.151Z,19
2017-07-03T09:58:49.376Z,19
2017-07-03T09:59:48.600Z,18.9
2017-07-03T10:00:47.824Z,18.9
2017-07-03T10:01:46.979Z,18.9
2017-07-03T10:02:46.685Z,18.9
2017-07-03T10:03:45.779Z,18.8
2017-07-03T10:04:45.379Z,18.9
2017-07-03T10:05:44.594Z,18.9
2017-07-03T10:06:43.816Z,19
2017-07-03T10:07:43.047Z,19.1
2017-07-03T10:08:42.791Z,19.2
2017-07-03T10:09:42.082Z,19.3
2017-07-03T10:11:40.684Z,19.5
2017-07-03T10:12:39.892Z,19.6
2017-07-03T10:13:39.702Z,19.5
2017-07-03T10:14:38.429Z,19.2
2017-07-03T10:15:38.028Z,19.4
2017-07-03T10:16:37.186Z,19.3
2017-07-03T10:17:36.407Z,19.2
2017-07-03T10:18:36.133Z,19
2017-07-03T10:19:35.338Z,18.9
2017-07-03T10:20:34.552Z,18.8
2017-07-03T10:21:33.774Z,18.8
2017-07-03T10:22:33.494Z,18.7
2017-07-03T10:23:32.722Z,18.6
2017-07-03T10:24:31.815Z,18.6
2017-07-03T10:25:31.038Z,18.5
2017-07-03T10:26:30.635Z,18.5
2017-07-03T10:27:29.726Z,18.5
2017-07-03T10:28:29.463Z,18.5
2017-07-03T10:29:28.680Z,18.6
2017-07-03T10:30:28.049Z,18.7
2017-07-03T10:31:27.301Z,18.8
2017-07-03T10:32:26.532Z,18.7
2017-07-03T10:33:25.734Z,19
2017-07-03T10:34:25.333Z,19.1
2017-07-03T10:35:24.436Z,19
2017-07-03T10:36:24.299Z,19
2017-07-03T10:37:23.385Z,19.2
2017-07-03T10:38:22.480Z,19.3
2017-07-03T10:39:22.094Z,19.3
2017-07-03T10:41:20.710Z,19.4
2017-07-03T10:42:19.948Z,19.4
2017-07-03T10:43:19.161Z,19.6
2017-07-03T10:44:19.459Z,19.7
2017-07-03T10:45:18.174Z,19.8
2017-07-03T10:47:16.773Z,19.9
2017-07-03T10:48:15.745Z,19.9
2017-07-03T10:49:15.449Z,19.8
2017-07-03T10:50:14.659Z,19.9
2017-07-03T10:51:13.870Z,20
2017-07-03T10:51:44.400Z,20
2017-07-03T10:52:14.916Z,19.9
2017-07-03T10:53:13.601Z,19.9
2017-07-03T10:54:12.317Z,19.9
2017-07-03T10:55:11.531Z,20
2017-07-03T10:56:10.739Z,20
2017-07-03T10:57:10.461Z,19.9
2017-07-03T10:58:09.666Z,20
2017-07-03T10:59:08.893Z,20.1
2017-07-03T11:00:08.127Z,20
2017-07-03T11:01:07.709Z,20
2017-07-03T11:02:06.931Z,19.8
2017-07-03T11:03:06.535Z,19.9
2017-07-03T11:04:05.744Z,19.9
2017-07-03T11:05:04.943Z,20
2017-07-03T11:06:04.667Z,19.9
2017-07-03T11:07:03.768Z,20
2017-07-03T11:08:03.366Z,19.9
2017-07-03T11:09:02.590Z,19.9
2017-07-03T11:10:01.813Z,19.9
2017-07-03T11:11:01.416Z,20.1
2017-07-03T11:12:00.506Z,20.1
2017-07-03T11:12:59.667Z,20.3
2017-07-03T11:13:59.182Z,20.3
2017-07-03T11:14:58.898Z,20.3
2017-07-03T11:15:58.109Z,20.5
2017-07-03T11:16:57.202Z,20.5
2017-07-03T11:17:56.817Z,20.5
2017-07-03T11:18:56.023Z,20.6
2017-07-03T11:19:55.638Z,20.6
2017-07-03T11:20:54.864Z,20.5
2017-07-03T11:21:54.069Z,20.5
2017-07-03T11:22:53.783Z,20.5
2017-07-03T11:23:52.992Z,20.8
2017-07-03T11:24:52.502Z,20.9
2017-07-03T11:25:51.597Z,20.7
2017-07-03T11:26:51.205Z,20.6
2017-07-03T11:27:50.429Z,20.7
2017-07-03T11:28:50.038Z,20.8
2017-07-03T11:29:49.342Z,20.8
2017-07-03T11:30:48.563Z,20.9
2017-07-03T11:31:47.839Z,20.7
2017-07-03T11:32:18.362Z,20.7
2017-07-03T11:33:46.767Z,21.1
2017-07-03T11:34:46.382Z,21
2017-07-03T11:35:45.595Z,21.2
2017-07-03T11:36:44.694Z,21.2
2017-07-03T11:37:44.409Z,21.2
2017-07-03T11:38:43.566Z,21.1
2017-07-03T11:39:43.738Z,21.1
2017-07-03T11:40:42.531Z,21.1
2017-07-03T11:41:41.633Z,20.9
2017-07-03T11:42:41.115Z,21
2017-07-03T11:43:11.699Z,21
2017-07-03T11:43:42.218Z,21
2017-07-03T11:44:13.206Z,21
2017-07-03T11:44:43.235Z,21.2
2017-07-03T11:45:14.322Z,21.2
2017-07-03T11:45:44.438Z,21.3
2017-07-03T11:46:14.859Z,21.3
2017-07-03T11:47:38.232Z,21.2
2017-07-03T11:48:37.226Z,21.4
2017-07-03T11:49:36.946Z,21.5
2017-07-03T11:50:36.541Z,21.3
2017-07-03T11:51:35.740Z,21.4
2017-07-03T11:52:34.945Z,21.3
2017-07-03T11:53:34.665Z,21.4
2017-07-03T11:54:33.882Z,21.6
2017-07-03T11:55:33.149Z,21.5
2017-07-03T11:56:32.859Z,21.8
2017-07-03T11:57:32.093Z,21.9
2017-07-03T11:58:31.305Z,21.8
2017-07-03T11:59:31.067Z,21.9
2017-07-03T12:00:30.165Z,22
2017-07-03T12:01:29.870Z,21.8
2017-07-03T12:02:29.072Z,21.8
2017-07-03T12:03:28.846Z,21.5
2017-07-03T12:03:58.867Z,21.5
2017-07-03T12:04:28.914Z,21.6
2017-07-03T12:05:27.177Z,21.6
2017-07-03T12:06:26.781Z,21.1
2017-07-03T12:07:25.998Z,20.8
2017-07-03T12:09:24.993Z,21.2
2017-07-03T12:10:24.218Z,21.4
2017-07-03T12:11:23.825Z,21.7
2017-07-03T12:12:22.923Z,21.8
2017-07-03T12:13:22.646Z,21.7
2017-07-03T12:14:21.869Z,21.9
2017-07-03T12:15:21.468Z,21.8
2017-07-03T12:16:20.681Z,21.9
2017-07-03T12:16:51.208Z,21.9
2017-07-03T12:17:21.822Z,22.1
2017-07-03T12:17:52.368Z,22.1
2017-07-03T12:18:22.896Z,22.3
2017-07-03T12:19:19.083Z,22.3
2017-07-03T12:20:18.295Z,22.2
2017-07-03T12:21:18.018Z,22.3
2017-07-03T12:22:17.120Z,22.5
2017-07-03T12:23:16.846Z,22.5
2017-07-03T12:24:16.071Z,22.7
2017-07-03T12:25:15.337Z,22.7
2017-07-03T12:25:45.876Z,22.7
2017-07-03T12:26:16.405Z,22.5
2017-07-03T12:26:46.823Z,22.5
2017-07-03T12:28:13.723Z,22.6
2017-07-03T12:29:13.440Z,22.2
2017-07-03T12:30:12.550Z,22.1
2017-07-03T12:31:12.265Z,21.8
2017-07-03T12:32:11.488Z,21.6
2017-07-03T12:33:10.704Z,21.5
2017-07-03T12:34:10.426Z,21.6
2017-07-03T12:35:09.938Z,22
2017-07-03T12:36:09.158Z,22.2
2017-07-03T12:37:08.760Z,22
2017-07-03T12:38:08.055Z,22.2
2017-07-03T12:39:07.345Z,22.2
2017-07-03T12:40:06.634Z,22.3
2017-07-03T12:41:06.292Z,22.2
2017-07-03T12:42:05.387Z,22.3
2017-07-03T12:43:04.987Z,22.6
2017-07-03T12:44:04.712Z,22.7
2017-07-03T12:45:03.939Z,22.9
2017-07-03T12:46:03.156Z,22.9
2017-07-03T12:47:02.768Z,22.7
2017-07-03T12:48:01.992Z,22.7
2017-07-03T12:49:01.699Z,22.7
2017-07-03T12:50:00.906Z,22.2
2017-07-03T12:51:00.513Z,22.1
2017-07-03T12:51:59.739Z,22.2
2017-07-03T12:52:59.365Z,22
2017-07-03T12:53:59.132Z,22.3
2017-07-03T12:54:58.340Z,22.2
2017-07-03T12:55:57.548Z,22.5
2017-07-03T12:56:57.161Z,22.6
2017-07-03T12:57:56.940Z,22.8
2017-07-03T12:58:56.180Z,22.7
2017-07-03T12:59:55.259Z,23.1
2017-07-03T13:00:54.980Z,22.6
2017-07-03T13:01:54.194Z,22.7
2017-07-03T13:02:53.795Z,22.7
2017-07-03T13:03:53.391Z,22.8
2017-07-03T13:04:52.624Z,22.2
2017-07-03T13:05:52.232Z,22.2
2017-07-03T13:06:51.322Z,22.4
2017-07-03T13:07:51.025Z,22.6
2017-07-03T13:08:50.234Z,22.7